Time;durP1;ratioP1;P1;durP2;ratioP2;P2;SDS_P1;SDS_P2;PMS_P1;PMS_P2;Temp;Humidity;BMP_temperature;BMP_pressure;BME280_temperature;BME280_humidity;BME280_pressure;Samples;Min_cycle;Max_cycle;Signal;HPM_P1;HPM_P2
2021/09/14 00:01:11;;;;;;;13.23;9.70;;;25.50;57.40;;;;;;6175520;28;83213;-63
2021/09/14 00:04:11;;;;;;;12.07;9.82;;;25.50;57.30;;;;;;6181339;28;80139;-63
2021/09/14 00:07:12;;;;;;;15.27;10.10;;;25.50;57.50;;;;;;6182537;28;81844;-63
2021/09/14 00:10:12;;;;;;;13.63;10.35;;;25.60;57.40;;;;;;6181325;28;83599;-62
2021/09/14 00:13:13;;;;;;;13.43;9.43;;;25.50;57.50;;;;;;6181293;28;84454;-63
2021/09/14 00:16:13;;;;;;;11.73;9.38;;;25.50;57.40;;;;;;6185355;28;82898;-63
2021/09/14 00:19:15;;;;;;;13.38;10.07;;;25.50;57.50;;;;;;6184696;28;80993;-63
2021/09/14 00:22:16;;;;;;;11.77;9.88;;;25.50;57.40;;;;;;6174257;28;83000;-63
2021/09/14 00:25:16;;;;;;;13.30;10.18;;;25.50;57.50;;;;;;6182583;28;83140;-63
2021/09/14 00:28:17;;;;;;;12.65;10.20;;;25.50;57.50;;;;;;6174041;28;83025;-63
2021/09/14 00:31:17;;;;;;;14.40;10.95;;;25.50;57.30;;;;;;6179754;28;89344;-63
2021/09/14 00:34:18;;;;;;;12.75;10.45;;;25.50;57.50;;;;;;6175652;28;85914;-63
2021/09/14 00:37:18;;;;;;;15.00;9.48;;;25.50;57.60;;;;;;6175976;28;84345;-63
2021/09/14 00:40:19;;;;;;;10.95;9.23;;;25.50;57.50;;;;;;6186148;28;82908;-62
2021/09/14 00:43:19;;;;;;;14.48;10.55;;;25.50;57.60;;;;;;6184669;28;80575;-63
2021/09/14 00:46:20;;;;;;;12.23;9.48;;;25.50;57.30;;;;;;6182510;28;83228;-63
2021/09/14 00:49:20;;;;;;;12.88;9.93;;;25.50;57.40;;;;;;6180540;28;84256;-64
2021/09/14 00:52:21;;;;;;;12.75;9.93;;;25.50;57.20;;;;;;6170688;28;80726;-64
2021/09/14 00:55:22;;;;;;;14.63;9.93;;;25.50;57.30;;;;;;6182980;28;80300;-64
2021/09/14 00:58:23;;;;;;;13.00;9.80;;;25.50;57.20;;;;;;6177367;28;80423;-63
2021/09/14 01:01:24;;;;;;;11.82;9.57;;;25.50;57.40;;;;;;6184141;28;81456;-63
2021/09/14 01:04:24;;;;;;;12.98;9.65;;;25.50;57.20;;;;;;6185421;28;80553;-63
2021/09/14 01:07:25;;;;;;;13.50;9.45;;;25.50;57.20;;;;;;6186727;28;80547;-63
2021/09/14 01:10:25;;;;;;;12.73;9.30;;;25.50;57.20;;;;;;6184677;28;80812;-63
2021/09/14 01:13:26;;;;;;;14.93;9.65;;;25.50;57.20;;;;;;6191497;28;81285;-63
2021/09/14 01:16:27;;;;;;;13.85;9.85;;;25.50;57.30;;;;;;6181688;28;81590;-63
2021/09/14 01:19:27;;;;;;;14.93;10.55;;;25.50;57.30;;;;;;6179126;28;81023;-63
2021/09/14 01:22:28;;;;;;;13.25;9.73;;;25.50;57.20;;;;;;6155615;28;83340;-63
2021/09/14 01:25:29;;;;;;;14.25;10.32;;;25.50;57.00;;;;;;6169355;28;84830;-63
2021/09/14 01:28:32;;;;;;;12.05;9.63;;;25.50;57.10;;;;;;6173026;28;83963;-63
2021/09/14 01:31:34;;;;;;;11.32;9.45;;;25.50;57.20;;;;;;6197971;28;85865;-64
2021/09/14 01:34:35;;;;;;;17.25;9.85;;;25.50;57.00;;;;;;6188450;28;82793;-63
2021/09/14 01:37:36;;;;;;;13.23;9.80;;;25.50;57.30;;;;;;6193967;28;81891;-64
2021/09/14 01:40:38;;;;;;;13.05;9.75;;;25.50;56.90;;;;;;6182285;28;80707;-65
2021/09/14 01:43:42;;;;;;;13.30;9.90;;;25.40;56.70;;;;;;6180971;28;81337;-63
2021/09/14 01:46:44;;;;;;;11.25;9.25;;;25.50;56.80;;;;;;6171734;28;83223;-63
2021/09/14 01:49:46;;;;;;;12.98;9.18;;;25.50;56.90;;;;;;6180153;28;82833;-63
2021/09/14 01:52:47;;;;;;;11.00;8.80;;;25.50;56.80;;;;;;6185030;28;82126;-63
2021/09/14 01:55:48;;;;;;;12.73;9.60;;;25.50;57.00;;;;;;6193330;28;83113;-62
2021/09/14 01:58:50;;;;;;;13.02;9.27;;;25.50;57.00;;;;;;6184517;28;80446;-63
2021/09/14 02:02:06;;;;;;;11.00;8.57;;;25.50;56.90;;;;;;6176878;28;80551;-62
2021/09/14 02:05:18;;;;;;;11.30;9.02;;;25.50;56.80;;;;;;6182028;28;82427;-63
2021/09/14 02:41:54;;;;;;;13.55;9.52;;;25.40;56.70;;;;;;6187106;28;81803;-64
2021/09/14 03:01:18;;;;;;;12.73;7.88;;;25.40;56.50;;;;;;6176281;28;87865;-62
2021/09/14 03:04:19;;;;;;;11.73;8.98;;;25.40;56.60;;;;;;6179458;28;81543;-63
2021/09/14 03:07:20;;;;;;;10.77;8.45;;;25.30;56.40;;;;;;6188242;28;82549;-63
2021/09/14 03:10:21;;;;;;;11.32;8.60;;;25.30;56.20;;;;;;6179432;28;81281;-62
2021/09/14 03:13:21;;;;;;;12.15;8.90;;;25.30;56.10;;;;;;6163465;28;83609;-62
2021/09/14 03:16:22;;;;;;;13.82;9.32;;;25.30;56.50;;;;;;6177693;28;87929;-62
2021/09/14 03:19:23;;;;;;;10.80;8.27;;;25.30;56.00;;;;;;6179113;28;83555;-63
2021/09/14 03:22:23;;;;;;;10.77;7.97;;;25.40;56.30;;;;;;6179968;28;83227;-62
2021/09/14 03:25:24;;;;;;;10.20;7.85;;;25.30;56.10;;;;;;6174292;28;83211;-62
2021/09/14 03:28:25;;;;;;;10.98;8.18;;;25.30;55.90;;;;;;6178711;28;83217;-63
2021/09/14 03:31:26;;;;;;;13.60;9.20;;;25.40;56.30;;;;;;6180557;28;83277;-62
2021/09/14 03:34:27;;;;;;;13.10;8.85;;;25.30;55.90;;;;;;6178710;28;83089;-63
2021/09/14 03:37:28;;;;;;;11.88;8.80;;;25.30;56.10;;;;;;6181813;28;80515;-63
2021/09/14 03:40:29;;;;;;;11.93;8.95;;;25.30;56.10;;;;;;6181020;28;82645;-62
2021/09/14 03:43:30;;;;;;;9.90;8.43;;;25.30;56.00;;;;;;6192575;28;83596;-62
2021/09/14 03:46:30;;;;;;;14.20;8.93;;;25.40;55.90;;;;;;6177121;28;81646;-63
2021/09/14 03:49:31;;;;;;;12.63;8.88;;;25.30;55.90;;;;;;6186805;28;83224;-63
2021/09/14 03:52:31;;;;;;;10.93;8.52;;;25.30;55.80;;;;;;6182439;28;82149;-63
2021/09/14 03:55:32;;;;;;;11.45;8.32;;;25.30;55.70;;;;;;6186895;28;80460;-64
2021/09/14 03:58:33;;;;;;;10.52;8.35;;;25.30;55.60;;;;;;6192854;28;82529;-65
2021/09/14 04:01:38;;;;;;;10.02;8.48;;;25.30;55.70;;;;;;6182263;28;83200;-64
2021/09/14 04:05:03;;;;;;;13.30;8.93;;;25.30;55.80;;;;;;6182433;28;83149;-64
2021/09/14 04:11:08;;;;;;;12.80;8.77;;;25.40;56.40;;;;;;6181163;28;83523;-64
2021/09/14 04:14:09;;;;;;;14.65;9.88;;;25.30;56.10;;;;;;6172918;28;83307;-64
2021/09/14 04:17:12;;;;;;;14.40;7.97;;;25.30;55.50;;;;;;6180329;28;82208;-64
2021/09/14 04:20:13;;;;;;;12.70;8.93;;;25.30;55.90;;;;;;6176474;28;82714;-64
2021/09/14 04:23:17;;;;;;;52.67;25.08;;;25.30;55.90;;;;;;6184626;28;82426;-64
2021/09/14 04:26:17;;;;;;;226.00;95.57;;;25.30;55.70;;;;;;6181328;28;89950;-64
2021/09/14 04:29:18;;;;;;;273.98;111.93;;;25.30;55.90;;;;;;6188460;28;85818;-64
2021/09/14 04:32:18;;;;;;;256.75;102.18;;;25.30;56.30;;;;;;6179501;28;85617;-64
2021/09/14 04:35:20;;;;;;;268.52;109.93;;;25.30;56.40;;;;;;6186655;28;88552;-64
2021/09/14 04:38:20;;;;;;;285.98;115.70;;;25.30;56.20;;;;;;6176848;28;87267;-64
2021/09/14 04:41:21;;;;;;;263.02;111.43;;;25.30;56.20;;;;;;6168395;28;88140;-64
2021/09/14 04:44:22;;;;;;;238.65;99.28;;;25.30;56.40;;;;;;6168198;28;87245;-64
2021/09/14 04:47:23;;;;;;;232.05;101.90;;;25.30;56.10;;;;;;6179760;28;87876;-65
2021/09/14 04:50:23;;;;;;;201.23;84.97;;;25.30;56.40;;;;;;6169542;28;85577;-64
2021/09/14 04:53:24;;;;;;;163.63;71.40;;;25.30;56.40;;;;;;6175760;28;87440;-65
2021/09/14 04:56:26;;;;;;;163.48;71.15;;;25.30;55.80;;;;;;6178977;28;85079;-64
2021/09/14 04:59:27;;;;;;;168.25;72.57;;;25.30;56.20;;;;;;6181563;28;83430;-64
2021/09/14 05:02:27;;;;;;;172.18;73.55;;;25.30;55.80;;;;;;6180993;28;84085;-63
2021/09/14 05:05:28;;;;;;;162.40;71.25;;;25.30;56.20;;;;;;6178112;28;83166;-64
2021/09/14 05:08:29;;;;;;;144.32;61.45;;;25.30;56.10;;;;;;6176776;28;85724;-64
2021/09/14 05:11:30;;;;;;;143.50;63.83;;;25.30;56.30;;;;;;6177257;28;86598;-64
2021/09/14 05:14:30;;;;;;;124.85;54.58;;;25.40;56.50;;;;;;6178012;28;84239;-65
2021/09/14 05:17:41;;;;;;;116.47;51.65;;;25.40;56.70;;;;;;6184055;28;84460;-64
2021/09/14 05:20:58;;;;;;;106.00;48.60;;;25.30;56.90;;;;;;6183433;28;85837;-64
2021/09/14 05:24:00;;;;;;;97.00;44.90;;;25.40;57.20;;;;;;6177437;28;85965;-64
2021/09/14 05:27:01;;;;;;;88.20;42.63;;;25.40;57.30;;;;;;6178258;28;85526;-64
2021/09/14 05:30:01;;;;;;;94.13;40.58;;;25.40;57.50;;;;;;6174789;28;84156;-64
2021/09/14 05:33:02;;;;;;;81.07;37.95;;;25.40;57.70;;;;;;6180184;28;83969;-65
2021/09/14 05:36:03;;;;;;;83.70;38.17;;;25.40;57.70;;;;;;6178490;28;84141;-64
2021/09/14 05:39:04;;;;;;;82.97;36.92;;;25.40;57.40;;;;;;6178078;28;85525;-65
2021/09/14 05:42:07;;;;;;;74.95;34.22;;;25.40;57.30;;;;;;6176531;28;83460;-65
2021/09/14 05:45:08;;;;;;;69.60;35.05;;;25.40;57.40;;;;;;6193765;28;85294;-65
2021/09/14 05:48:09;;;;;;;72.38;32.08;;;25.40;57.40;;;;;;6179343;28;82837;-64
2021/09/14 05:51:13;;;;;;;75.90;32.20;;;25.50;57.30;;;;;;6175738;28;85845;-65
2021/09/14 05:54:30;;;;;;;63.00;29.35;;;25.50;57.20;;;;;;6176116;28;85966;-65
2021/09/14 05:57:31;;;;;;;65.03;29.73;;;25.50;56.90;;;;;;6180299;28;85380;-65
2021/09/14 06:00:32;;;;;;;54.88;27.77;;;25.50;56.70;;;;;;6171853;28;85325;-64
2021/09/14 06:03:33;;;;;;;64.30;29.58;;;25.50;56.80;;;;;;6179953;28;83136;-64
2021/09/14 06:06:36;;;;;;;55.38;27.83;;;25.50;56.70;;;;;;6175137;28;85817;-64
2021/09/14 06:09:37;;;;;;;56.75;25.98;;;25.50;57.10;;;;;;6185214;28;86077;-64
2021/09/14 06:12:37;;;;;;;53.63;25.98;;;25.50;56.80;;;;;;6176765;28;83758;-64
2021/09/14 06:15:40;;;;;;;47.80;26.73;;;25.50;56.80;;;;;;6180966;28;84366;-65
2021/09/14 06:18:41;;;;;;;57.15;25.00;;;25.50;56.80;;;;;;6180319;28;85705;-65
2021/09/14 06:21:42;;;;;;;50.70;24.42;;;25.50;56.70;;;;;;6177900;28;85873;-63
2021/09/14 06:24:44;;;;;;;44.80;24.27;;;25.50;56.80;;;;;;6176836;28;85910;-64
2021/09/14 06:27:45;;;;;;;49.97;24.23;;;25.50;56.80;;;;;;6176089;28;86278;-63
2021/09/14 06:30:46;;;;;;;45.33;22.55;;;25.50;56.70;;;;;;6172204;28;85902;-64
2021/09/14 06:33:50;;;;;;;42.40;21.08;;;25.50;56.60;;;;;;6171462;28;85830;-63
2021/09/14 06:36:51;;;;;;;39.80;19.73;;;25.50;55.80;;;;;;6174263;28;85321;-64
2021/09/14 06:39:52;;;;;;;41.03;20.80;;;25.50;56.20;;;;;;6168301;28;86228;-64
2021/09/14 06:42:53;;;;;;;32.25;18.58;;;25.50;56.40;;;;;;6177007;28;85803;-65
2021/09/14 06:46:12;;;;;;;40.28;19.10;;;25.50;56.20;;;;;;6177853;28;82878;-65
2021/09/14 06:49:20;;;;;;;31.02;18.80;;;25.50;56.20;;;;;;6175131;28;90038;-64
2021/09/14 06:52:20;;;;;;;36.78;19.55;;;25.40;55.90;;;;;;6179005;28;85743;-65
2021/09/14 06:55:21;;;;;;;29.20;18.27;;;25.40;55.90;;;;;;6171742;28;83277;-65
2021/09/14 06:58:21;;;;;;;29.70;17.42;;;25.50;56.10;;;;;;6174973;28;83591;-62
2021/09/14 07:01:22;;;;;;;29.90;18.17;;;25.50;56.20;;;;;;6177888;28;83841;-65
2021/09/14 07:04:23;;;;;;;28.92;15.90;;;25.50;56.00;;;;;;6176941;28;84070;-64
2021/09/14 07:07:23;;;;;;;26.75;16.60;;;25.50;56.20;;;;;;6177847;28;83246;-64
2021/09/14 07:10:23;;;;;;;23.38;16.83;;;25.50;56.00;;;;;;6170457;28;84113;-65
2021/09/14 07:13:24;;;;;;;26.73;16.77;;;25.50;55.60;;;;;;6177958;28;83356;-63
2021/09/14 07:16:25;;;;;;;25.52;16.20;;;25.50;55.60;;;;;;6179162;28;83888;-62
2021/09/14 07:19:25;;;;;;;29.10;15.10;;;25.50;55.90;;;;;;6180082;28;85353;-64
2021/09/14 07:22:26;;;;;;;24.00;15.38;;;25.50;55.50;;;;;;6176788;28;83359;-64
2021/09/14 07:25:27;;;;;;;21.95;14.40;;;25.50;55.70;;;;;;6181535;28;83472;-64
2021/09/14 07:28:27;;;;;;;24.45;14.52;;;25.50;55.50;;;;;;6163011;28;83115;-67
2021/09/14 07:31:30;;;;;;;22.13;14.15;;;25.50;55.40;;;;;;6180125;28;83933;-63
2021/09/14 07:34:31;;;;;;;20.30;13.93;;;25.50;55.10;;;;;;6179667;28;84187;-62
2021/09/14 07:37:32;;;;;;;22.40;13.23;;;25.50;54.80;;;;;;6178572;28;84082;-62
2021/09/14 07:40:32;;;;;;;24.42;14.05;;;25.50;55.20;;;;;;6172240;28;83218;-61
2021/09/14 07:43:33;;;;;;;21.65;12.60;;;25.50;55.10;;;;;;6173143;28;83020;-62
2021/09/14 07:46:33;;;;;;;29.45;11.90;;;25.50;56.00;;;;;;6179803;28;83314;-62
2021/09/14 07:49:34;;;;;;;20.15;11.82;;;25.50;56.30;;;;;;6183314;28;83726;-62
2021/09/14 07:52:34;;;;;;;23.63;12.07;;;25.50;56.40;;;;;;6191278;28;83834;-63
2021/09/14 07:55:35;;;;;;;21.50;12.57;;;25.50;56.60;;;;;;6185588;28;83341;-63
2021/09/14 07:58:36;;;;;;;20.67;13.32;;;25.50;56.40;;;;;;6182017;28;86201;-64
2021/09/14 08:01:36;;;;;;;24.05;13.32;;;25.60;55.80;;;;;;6177420;28;83896;-63
2021/09/14 08:04:37;;;;;;;21.35;13.93;;;25.60;55.50;;;;;;6183829;28;82829;-63
2021/09/14 08:07:37;;;;;;;20.80;13.52;;;25.60;55.20;;;;;;6179995;28;89445;-63
2021/09/14 08:10:38;;;;;;;23.83;13.68;;;25.50;55.20;;;;;;6171628;28;82943;-62
2021/09/14 08:13:38;;;;;;;24.85;13.43;;;25.60;55.40;;;;;;6184956;28;83325;-62
2021/09/14 08:16:39;;;;;;;18.10;12.57;;;25.60;54.80;;;;;;6190906;28;83179;-63
2021/09/14 08:19:41;;;;;;;22.15;12.82;;;25.60;54.60;;;;;;6182302;28;82969;-63
2021/09/14 08:22:42;;;;;;;19.60;12.52;;;25.70;54.60;;;;;;6179080;28;82884;-63
2021/09/14 08:25:42;;;;;;;19.83;12.52;;;25.70;54.40;;;;;;6175697;28;84214;-62
2021/09/14 08:28:43;;;;;;;20.42;12.50;;;25.70;54.00;;;;;;6170451;28;84294;-63
2021/09/14 08:31:56;;;;;;;17.88;11.77;;;25.70;53.70;;;;;;6177183;28;85234;-63
2021/09/14 08:34:57;;;;;;;16.88;11.80;;;25.70;53.70;;;;;;6182453;28;83077;-63
2021/09/14 08:37:58;;;;;;;17.02;11.40;;;25.70;53.60;;;;;;6180858;28;82959;-63
2021/09/14 08:40:58;;;;;;;18.52;11.55;;;25.70;53.80;;;;;;6187070;28;83492;-63
2021/09/14 08:43:59;;;;;;;16.02;11.18;;;25.70;53.50;;;;;;6187956;28;84953;-63
2021/09/14 08:47:02;;;;;;;16.85;11.02;;;25.80;53.30;;;;;;6177843;28;83085;-63
2021/09/14 08:50:03;;;;;;;18.42;11.50;;;25.80;53.40;;;;;;6186600;28;86667;-62
2021/09/14 08:53:05;;;;;;;16.48;9.75;;;25.80;53.20;;;;;;6182400;28;83560;-63
2021/09/14 08:56:05;;;;;;;15.80;10.75;;;25.80;53.10;;;;;;6190986;28;84506;-63
2021/09/14 08:59:06;;;;;;;21.08;9.50;;;25.80;52.90;;;;;;6176586;28;83941;-63
2021/09/14 09:02:06;;;;;;;15.02;10.05;;;25.80;52.60;;;;;;6182536;28;82974;-63
2021/09/14 09:05:07;;;;;;;13.98;10.05;;;25.80;52.90;;;;;;6185756;28;83323;-63
2021/09/14 09:08:07;;;;;;;13.52;10.18;;;25.90;54.50;;;;;;6170961;28;83661;-62
2021/09/14 09:11:08;;;;;;;13.90;9.52;;;25.90;54.40;;;;;;6173732;28;84542;-64
2021/09/14 09:14:08;;;;;;;13.88;9.70;;;25.90;54.70;;;;;;6187138;28;83158;-62
2021/09/14 09:17:10;;;;;;;13.63;7.95;;;25.90;54.20;;;;;;6181645;28;81991;-63
2021/09/14 09:20:10;;;;;;;16.40;9.10;;;25.90;54.00;;;;;;6169511;28;80565;-62
2021/09/14 09:23:11;;;;;;;15.98;8.85;;;25.90;53.90;;;;;;6180762;28;81575;-63
2021/09/14 09:26:12;;;;;;;12.73;8.80;;;26.00;54.00;;;;;;6171722;28;80854;-63
2021/09/14 09:29:13;;;;;;;14.15;8.95;;;26.00;53.90;;;;;;6178801;28;80851;-63
2021/09/14 09:32:13;;;;;;;11.75;7.93;;;25.90;53.50;;;;;;6174612;28;80417;-63
2021/09/14 09:35:13;;;;;;;11.00;8.45;;;25.90;53.60;;;;;;6182529;28;80781;-63
2021/09/14 09:38:14;;;;;;;14.73;10.00;;;25.90;53.50;;;;;;6182377;28;80916;-63
2021/09/14 09:41:14;;;;;;;21.33;13.38;;;25.90;55.90;;;;;;6180459;28;83456;-62
2021/09/14 09:44:15;;;;;;;34.15;17.20;;;25.90;57.00;;;;;;6168850;28;83168;-63
2021/09/14 09:47:15;;;;;;;83.03;30.10;;;25.90;56.80;;;;;;6176693;28;83487;-62
2021/09/14 09:50:16;;;;;;;47.97;18.65;;;25.90;57.90;;;;;;6174220;28;83644;-63
2021/09/14 09:53:16;;;;;;;41.55;18.67;;;25.90;57.00;;;;;;6168748;28;83873;-62
2021/09/14 09:56:17;;;;;;;43.63;19.10;;;25.80;56.70;;;;;;6177808;28;83127;-62
2021/09/14 09:59:17;;;;;;;37.28;16.90;;;25.90;56.40;;;;;;6176834;28;83178;-63
2021/09/14 10:02:18;;;;;;;41.58;18.23;;;25.90;56.30;;;;;;6175033;28;84389;-63
2021/09/14 10:05:18;;;;;;;40.13;17.67;;;25.90;56.00;;;;;;6176244;28;83405;-63
2021/09/14 10:08:19;;;;;;;27.00;12.85;;;25.90;55.90;;;;;;6178716;28;83229;-64
2021/09/14 10:11:19;;;;;;;29.27;14.02;;;25.90;53.70;;;;;;6179329;28;83390;-62
2021/09/14 10:14:20;;;;;;;25.02;12.55;;;26.00;54.30;;;;;;6178703;28;83188;-62
2021/09/14 10:17:20;;;;;;;20.83;11.93;;;26.00;53.80;;;;;;6171938;28;84143;-62
2021/09/14 10:20:21;;;;;;;16.83;10.50;;;26.10;53.50;;;;;;6167953;28;83282;-62
2021/09/14 10:23:22;;;;;;;17.35;10.15;;;26.00;52.40;;;;;;6170912;28;82988;-63
2021/09/14 10:26:22;;;;;;;22.15;10.25;;;26.10;52.70;;;;;;6175518;28;82883;-63
2021/09/14 10:29:23;;;;;;;19.58;9.40;;;26.10;52.40;;;;;;6177338;28;83227;-63
2021/09/14 10:32:23;;;;;;;12.20;8.95;;;26.00;52.30;;;;;;6182457;28;83496;-62
2021/09/14 10:35:24;;;;;;;14.55;9.38;;;26.10;52.10;;;;;;6186647;28;80374;-63
2021/09/14 10:38:25;;;;;;;16.27;9.95;;;26.10;52.20;;;;;;6186987;28;80877;-63
2021/09/14 10:41:26;;;;;;;14.60;9.25;;;26.10;51.90;;;;;;6184212;28;80657;-63
2021/09/14 10:44:27;;;;;;;13.23;8.35;;;26.10;51.80;;;;;;6186232;28;81327;-62
2021/09/14 10:47:27;;;;;;;12.70;8.23;;;26.10;52.00;;;;;;6178712;28;82280;-62
2021/09/14 10:50:28;;;;;;;14.18;8.40;;;26.10;52.20;;;;;;6178083;28;80367;-63
2021/09/14 10:53:31;;;;;;;12.30;7.53;;;26.10;51.80;;;;;;6170368;28;81434;-64
2021/09/14 10:56:32;;;;;;;13.50;8.48;;;26.00;51.70;;;;;;6178969;28;80440;-63
2021/09/14 10:59:32;;;;;;;16.88;8.18;;;26.10;51.80;;;;;;6181077;28;83231;-65
2021/09/14 11:02:33;;;;;;;16.25;8.07;;;26.10;51.60;;;;;;6181575;28;80905;-64
2021/09/14 11:05:33;;;;;;;12.75;8.05;;;26.10;51.70;;;;;;6182252;28;80389;-62
2021/09/14 11:08:34;;;;;;;16.38;8.52;;;26.00;51.20;;;;;;6188395;28;80092;-63
2021/09/14 11:11:34;;;;;;;16.33;8.52;;;26.00;50.70;;;;;;6177848;28;81285;-63
2021/09/14 11:14:35;;;;;;;14.57;8.48;;;26.00;50.50;;;;;;6180491;28;80863;-63
2021/09/14 11:17:36;;;;;;;12.23;7.95;;;26.00;50.20;;;;;;6172346;28;80538;-63
2021/09/14 11:20:36;;;;;;;11.80;7.95;;;26.00;49.90;;;;;;6177589;28;80636;-63
2021/09/14 11:23:37;;;;;;;12.80;7.85;;;26.00;50.00;;;;;;6180407;28;81121;-63
2021/09/14 11:26:37;;;;;;;13.55;8.55;;;26.00;50.10;;;;;;6178271;28;80486;-64
2021/09/14 11:29:38;;;;;;;14.07;8.32;;;25.90;50.60;;;;;;6182557;28;80592;-63
2021/09/14 11:32:38;;;;;;;16.85;8.68;;;25.90;49.80;;;;;;6184046;28;80465;-63
2021/09/14 11:35:40;;;;;;;10.98;8.75;;;25.90;49.20;;;;;;6180016;28;81388;-62
2021/09/14 11:38:40;;;;;;;15.35;8.80;;;25.90;49.00;;;;;;6170571;28;80936;-62
2021/09/14 11:41:43;;;;;;;14.10;9.30;;;25.80;48.30;;;;;;6173095;28;80398;-62
2021/09/14 11:44:44;;;;;;;14.95;8.15;;;25.80;48.60;;;;;;6177955;28;80481;-63
2021/09/14 11:47:45;;;;;;;15.43;8.73;;;25.80;48.50;;;;;;6181257;28;81102;-62
2021/09/14 11:50:45;;;;;;;13.65;7.78;;;25.90;48.70;;;;;;6180021;28;80781;-61
2021/09/14 11:53:46;;;;;;;11.40;8.02;;;25.90;48.90;;;;;;6178227;28;81482;-61
2021/09/14 11:56:46;;;;;;;13.80;9.70;;;25.90;48.80;;;;;;6181399;28;80541;-61
2021/09/14 11:59:47;;;;;;;13.00;8.98;;;25.90;48.80;;;;;;6179343;28;80765;-60
2021/09/14 12:02:48;;;;;;;12.57;8.23;;;26.00;48.20;;;;;;6181175;28;82605;-60
2021/09/14 12:05:48;;;;;;;12.57;9.57;;;26.00;49.00;;;;;;6176736;28;80579;-60
2021/09/14 12:08:49;;;;;;;16.25;9.73;;;26.00;49.40;;;;;;6181716;28;81048;-60
2021/09/14 12:11:49;;;;;;;14.48;9.18;;;26.00;49.00;;;;;;6179904;28;80632;-60
2021/09/14 12:14:50;;;;;;;12.93;9.43;;;26.00;49.10;;;;;;6178281;28;81280;-60
2021/09/14 12:17:50;;;;;;;10.60;8.73;;;26.00;48.70;;;;;;6191538;28;81086;-60
2021/09/14 12:20:51;;;;;;;12.95;9.15;;;26.10;48.90;;;;;;6181940;28;82012;-60
2021/09/14 12:23:51;;;;;;;15.23;9.07;;;26.10;48.90;;;;;;6184502;28;80420;-60
2021/09/14 12:26:55;;;;;;;12.60;8.82;;;26.20;48.40;;;;;;6184147;28;80067;-60
2021/09/14 12:29:55;;;;;;;11.50;8.73;;;26.20;48.40;;;;;;6184454;28;81599;-60
2021/09/14 12:32:56;;;;;;;14.30;8.68;;;26.20;49.10;;;;;;6173460;28;80586;-60
2021/09/14 12:35:56;;;;;;;12.25;8.43;;;26.10;49.00;;;;;;6185277;28;80762;-62
2021/09/14 12:38:57;;;;;;;13.93;8.48;;;26.20;49.30;;;;;;6183596;28;80431;-62
2021/09/14 12:41:57;;;;;;;14.68;8.30;;;26.10;49.40;;;;;;6181834;28;81272;-62
2021/09/14 12:44:59;;;;;;;12.48;8.30;;;26.10;49.50;;;;;;6182450;28;81183;-63
2021/09/14 12:47:59;;;;;;;14.35;7.75;;;26.10;49.50;;;;;;6177570;28;81097;-65
2021/09/14 12:51:01;;;;;;;9.52;7.93;;;26.00;49.50;;;;;;6178608;28;81170;-65
2021/09/14 12:54:01;;;;;;;12.55;7.40;;;26.10;49.70;;;;;;6176832;28;80931;-65
2021/09/14 12:57:01;;;;;;;12.18;7.43;;;26.00;50.00;;;;;;6179269;28;81777;-64
2021/09/14 13:00:02;;;;;;;9.80;6.88;;;26.10;49.90;;;;;;6180456;28;81779;-66
2021/09/14 13:03:03;;;;;;;11.88;7.45;;;26.10;50.20;;;;;;6184234;28;81886;-66
2021/09/14 13:06:03;;;;;;;8.75;7.38;;;26.10;50.40;;;;;;6183527;28;81167;-65
2021/09/14 13:09:04;;;;;;;11.45;6.90;;;26.10;50.30;;;;;;6174326;28;80999;-65
2021/09/14 13:12:07;;;;;;;9.77;6.85;;;26.10;50.40;;;;;;6186521;28;80530;-63
2021/09/14 13:18:27;;;;;;;10.68;7.43;;;26.10;50.70;;;;;;6180328;28;81197;-64
2021/09/14 13:21:27;;;;;;;11.32;6.80;;;26.10;50.90;;;;;;6179413;28;87666;-64
2021/09/14 13:24:28;;;;;;;13.32;7.45;;;26.10;51.00;;;;;;6172869;28;81333;-64
2021/09/14 13:27:28;;;;;;;7.45;6.63;;;26.10;51.20;;;;;;6170382;28;80466;-65
2021/09/14 13:30:29;;;;;;;8.55;7.03;;;26.10;51.20;;;;;;6182153;28;80321;-65
2021/09/14 13:33:29;;;;;;;7.63;6.80;;;26.10;51.50;;;;;;6184511;28;80969;-64
2021/09/14 13:36:30;;;;;;;8.38;6.53;;;26.10;51.00;;;;;;6188078;28;81116;-64
2021/09/14 13:39:30;;;;;;;12.13;7.40;;;26.10;51.10;;;;;;6184952;28;80414;-63
2021/09/14 13:42:31;;;;;;;8.85;7.18;;;26.10;51.20;;;;;;6185529;28;80973;-63
2021/09/14 13:48:51;;;;;;;10.73;7.20;;;26.20;51.70;;;;;;6180967;28;80678;-62
2021/09/14 13:51:52;;;;;;;8.48;6.88;;;26.20;51.40;;;;;;6185790;28;81715;-62
2021/09/14 13:54:52;;;;;;;10.82;8.07;;;26.20;51.30;;;;;;6180637;28;80611;-62
2021/09/14 13:57:53;;;;;;;9.07;7.63;;;26.10;51.20;;;;;;6189672;28;81355;-63
2021/09/14 14:00:53;;;;;;;10.30;7.75;;;26.20;51.50;;;;;;6176886;28;82610;-63
2021/09/14 14:03:54;;;;;;;15.20;8.43;;;26.20;51.00;;;;;;6181033;28;80908;-63
2021/09/14 14:06:54;;;;;;;12.20;7.85;;;26.20;50.80;;;;;;6186904;28;81731;-63
2021/09/14 14:09:55;;;;;;;9.68;7.60;;;26.20;50.70;;;;;;6181259;28;80809;-63
2021/09/14 14:12:55;;;;;;;11.90;8.50;;;26.20;51.30;;;;;;6173038;28;81605;-62
2021/09/14 14:15:56;;;;;;;10.30;8.88;;;26.20;51.30;;;;;;6180844;28;80581;-63
2021/09/14 14:18:56;;;;;;;18.00;9.23;;;26.20;51.20;;;;;;6181378;28;80573;-62
2021/09/14 14:21:57;;;;;;;16.08;9.80;;;26.20;49.90;;;;;;6179535;28;83592;-62
2021/09/14 14:24:57;;;;;;;14.52;9.75;;;26.20;50.30;;;;;;6181324;28;80942;-62
2021/09/14 14:27:59;;;;;;;13.88;9.52;;;26.10;49.90;;;;;;6179429;28;80460;-62
2021/09/14 14:30:59;;;;;;;13.35;8.55;;;26.20;49.80;;;;;;6181844;28;81562;-63
2021/09/14 14:34:00;;;;;;;11.45;9.27;;;26.20;49.90;;;;;;6177850;28;80531;-62
2021/09/14 14:37:00;;;;;;;15.15;9.10;;;26.20;49.90;;;;;;6171351;28;81241;-63
2021/09/14 14:40:01;;;;;;;14.70;9.63;;;26.20;50.00;;;;;;6184790;28;81033;-63
2021/09/14 14:43:01;;;;;;;11.23;9.25;;;26.20;50.20;;;;;;6186987;28;80937;-63
2021/09/14 14:46:02;;;;;;;15.55;9.90;;;26.20;50.10;;;;;;6196238;28;80864;-63
2021/09/14 14:49:02;;;;;;;13.15;9.30;;;26.20;50.10;;;;;;6188316;28;87634;-63
2021/09/14 14:52:03;;;;;;;20.70;9.82;;;26.20;50.30;;;;;;6170244;28;81934;-63
2021/09/14 14:55:03;;;;;;;14.07;9.73;;;26.20;50.00;;;;;;6173345;28;80867;-63
2021/09/14 14:58:04;;;;;;;15.90;9.43;;;26.20;50.10;;;;;;6192191;28;80191;-64
2021/09/14 15:01:04;;;;;;;12.18;8.85;;;26.10;50.10;;;;;;6171440;28;80627;-63
2021/09/14 15:04:05;;;;;;;16.38;9.82;;;26.10;50.10;;;;;;6179651;28;80708;-63
2021/09/14 15:07:05;;;;;;;12.90;9.38;;;26.10;50.20;;;;;;6185383;28;81331;-65
2021/09/14 15:10:06;;;;;;;13.77;9.05;;;26.10;49.50;;;;;;6178256;28;80584;-63
2021/09/14 15:13:06;;;;;;;11.52;8.85;;;26.00;49.40;;;;;;6191181;28;81301;-63
2021/09/14 15:16:07;;;;;;;21.35;8.82;;;26.10;49.30;;;;;;6197733;28;81059;-63
2021/09/14 15:19:07;;;;;;;14.18;8.18;;;26.10;49.50;;;;;;6188650;28;80403;-63
2021/09/14 15:22:08;;;;;;;11.38;8.45;;;26.00;49.40;;;;;;6167754;28;81303;-63
2021/09/14 15:25:08;;;;;;;15.27;8.27;;;26.00;49.40;;;;;;6186392;28;80475;-63
2021/09/14 15:28:09;;;;;;;12.32;7.80;;;26.00;49.40;;;;;;6183450;28;80889;-63
2021/09/14 15:31:09;;;;;;;11.75;7.43;;;26.00;49.40;;;;;;6150686;28;80629;-63
2021/09/14 15:34:10;;;;;;;13.60;7.32;;;26.00;49.40;;;;;;6178337;28;81096;-64
2021/09/14 15:37:13;;;;;;;10.43;7.63;;;26.00;49.50;;;;;;6199133;28;80899;-64
2021/09/14 15:40:13;;;;;;;11.80;7.32;;;26.00;49.70;;;;;;6193619;28;80861;-64
2021/09/14 15:43:14;;;;;;;10.10;6.68;;;26.00;49.90;;;;;;6178062;28;80749;-65
2021/09/14 15:46:14;;;;;;;14.75;6.90;;;26.00;50.30;;;;;;6175924;28;80943;-64
2021/09/14 15:49:15;;;;;;;8.45;7.13;;;26.00;51.10;;;;;;6184837;28;80557;-64
2021/09/14 15:52:15;;;;;;;10.48;7.22;;;25.90;50.80;;;;;;6187097;28;80595;-64
2021/09/14 15:55:16;;;;;;;11.27;7.45;;;26.00;51.30;;;;;;6182899;28;80913;-64
2021/09/14 15:58:16;;;;;;;11.52;6.95;;;26.00;51.30;;;;;;6184870;28;80635;-65
2021/09/14 16:01:17;;;;;;;13.10;7.43;;;26.00;51.70;;;;;;6183553;28;80573;-66
2021/09/14 16:04:18;;;;;;;11.63;7.43;;;26.00;51.60;;;;;;6180326;28;82293;-68
2021/09/14 16:07:18;;;;;;;9.60;6.90;;;26.00;51.50;;;;;;6184162;28;84889;-65
2021/09/14 16:10:19;;;;;;;15.65;7.32;;;26.00;51.80;;;;;;6194338;28;82181;-65
2021/09/14 16:13:19;;;;;;;19.88;8.05;;;26.00;51.80;;;;;;6182317;28;80665;-66
2021/09/14 16:16:20;;;;;;;9.90;7.03;;;26.00;51.30;;;;;;6184894;28;81457;-65
2021/09/14 16:19:20;;;;;;;13.65;7.90;;;26.00;51.80;;;;;;6194057;28;80454;-65
2021/09/14 16:22:20;;;;;;;9.60;6.60;;;26.00;51.70;;;;;;6198708;28;80313;-66
2021/09/14 16:25:21;;;;;;;13.68;7.00;;;25.90;51.70;;;;;;6191495;28;80436;-66